createdAt,value
2022-10-09T00:01:29.122Z,121.27
2022-10-09T00:03:58.904Z,122.00
2022-10-09T00:06:30.804Z,121.97
2022-10-09T00:09:00.020Z,120.93
2022-10-09T00:11:29.568Z,121.70
2022-10-09T00:13:57.775Z,121.97
2022-10-09T00:16:27.034Z,121.93
2022-10-09T00:18:55.555Z,121.83
2022-10-09T00:21:33.005Z,121.97
2022-10-09T00:24:03.522Z,121.27
2022-10-09T00:26:31.872Z,121.70
2022-10-09T00:28:59.814Z,121.43
2022-10-09T00:31:27.488Z,120.47
2022-10-09T00:33:55.306Z,121.67
2022-10-09T00:36:25.769Z,121.40
2022-10-09T00:38:55.636Z,121.37
2022-10-09T00:41:30.778Z,121.67
2022-10-09T00:44:00.764Z,121.40
2022-10-09T00:46:46.141Z,120.63
2022-10-09T00:49:21.005Z,121.87
2022-10-09T00:51:50.229Z,121.77
2022-10-09T00:54:21.956Z,121.90
2022-10-09T00:56:50.879Z,121.07
2022-10-09T00:59:19.301Z,120.67
2022-10-09T01:01:47.013Z,118.87
2022-10-09T01:04:14.637Z,121.87
2022-10-09T01:07:33.281Z,122.00
2022-10-09T01:10:09.693Z,121.87
2022-10-09T01:12:40.963Z,121.60
2022-10-09T01:15:23.390Z,121.80
2022-10-09T01:18:18.733Z,121.90
2022-10-09T01:20:57.137Z,121.87
2022-10-09T01:24:06.273Z,121.83
2022-10-09T01:27:06.194Z,121.90
2022-10-09T01:29:42.688Z,120.90
2022-10-09T01:32:14.429Z,122.17
2022-10-09T01:34:44.150Z,121.67
2022-10-09T01:37:13.465Z,122.10
2022-10-09T01:39:43.357Z,122.03
2022-10-09T01:42:13.237Z,121.97
2022-10-09T01:44:41.264Z,121.53
2022-10-09T01:47:16.576Z,121.53
2022-10-09T01:49:55.666Z,121.07
2022-10-09T01:52:47.836Z,120.97
2022-10-09T01:55:44.930Z,120.20
2022-10-09T01:58:30.302Z,121.30
2022-10-09T02:01:13.826Z,121.40
2022-10-09T02:03:46.256Z,121.87
2022-10-09T02:06:16.490Z,118.43
2022-10-09T02:08:53.453Z,121.37
2022-10-09T02:11:22.157Z,120.60
2022-10-09T02:13:53.706Z,122.47
2022-10-09T02:16:39.778Z,120.30
2022-10-09T02:19:36.336Z,121.70
2022-10-09T02:22:24.139Z,120.90
2022-10-09T02:24:52.639Z,121.67
2022-10-09T02:27:22.102Z,121.67
2022-10-09T02:29:49.928Z,121.70
2022-10-09T02:32:17.982Z,121.80
2022-10-09T02:34:45.454Z,121.90
2022-10-09T02:37:12.922Z,122.30
2022-10-09T02:39:40.862Z,122.00
2022-10-09T02:42:08.284Z,122.03
2022-10-09T02:44:35.943Z,121.70
2022-10-09T02:47:03.790Z,119.17
2022-10-09T02:49:32.163Z,121.27
2022-10-09T02:51:59.644Z,121.73
2022-10-09T02:54:27.070Z,121.93
2022-10-09T02:56:54.579Z,121.80
2022-10-09T02:59:22.063Z,120.80
2022-10-09T03:01:49.619Z,121.37
2022-10-09T03:04:17.184Z,121.50
2022-10-09T03:06:44.639Z,121.53
2022-10-09T03:09:12.108Z,121.07
2022-10-09T03:11:39.475Z,121.63
2022-10-09T03:14:06.931Z,120.97
2022-10-09T03:16:34.367Z,121.30
2022-10-09T03:19:02.028Z,121.27
2022-10-09T03:21:29.488Z,121.70
2022-10-09T03:23:57.095Z,121.17
2022-10-09T03:26:27.390Z,118.57
2022-10-09T03:28:55.636Z,121.30
2022-10-09T03:31:51.028Z,121.43
2022-10-09T03:34:14.399Z,120.20
2022-10-09T03:36:42.203Z,121.90
2022-10-09T03:39:09.817Z,119.27
2022-10-09T03:41:37.251Z,121.63
2022-10-09T03:44:04.373Z,118.10
2022-10-09T03:46:31.792Z,121.17
2022-10-09T03:48:58.805Z,118.57
2022-10-09T03:51:26.496Z,121.20
2022-10-09T03:53:53.896Z,121.10
2022-10-09T03:56:20.862Z,119.93
2022-10-09T03:58:48.288Z,121.70
2022-10-09T04:01:15.421Z,121.40
2022-10-09T04:03:42.568Z,121.30
2022-10-09T04:06:10.018Z,120.70
2022-10-09T04:08:37.534Z,121.50
2022-10-09T04:11:04.989Z,119.30
2022-10-09T04:13:32.453Z,119.07
2022-10-09T04:15:59.967Z,121.70
2022-10-09T04:18:26.986Z,120.57
2022-10-09T04:20:56.634Z,121.40
2022-10-09T04:23:27.095Z,120.90
2022-10-09T04:25:56.205Z,120.70
2022-10-09T04:28:24.492Z,119.27
2022-10-09T04:30:52.135Z,120.40
2022-10-09T04:33:19.734Z,120.57
2022-10-09T04:35:52.717Z,119.97
2022-10-09T04:38:21.297Z,120.20
2022-10-09T04:41:02.084Z,119.50
2022-10-09T04:43:31.682Z,119.90
2022-10-09T04:45:59.451Z,120.10
2022-10-09T04:48:27.027Z,120.33
2022-10-09T04:50:54.474Z,120.77
2022-10-09T04:53:21.878Z,120.97
2022-10-09T04:55:49.461Z,120.80
2022-10-09T04:58:16.474Z,120.70
2022-10-09T05:00:46.082Z,120.63
2022-10-09T05:03:13.894Z,119.50
2022-10-09T05:05:40.832Z,120.60
2022-10-09T05:08:07.989Z,120.17
2022-10-09T05:10:35.563Z,120.97
2022-10-09T05:13:03.154Z,120.80
2022-10-09T05:15:31.206Z,121.10
2022-10-09T05:17:58.626Z,120.87
2022-10-09T05:20:26.031Z,120.17
2022-10-09T05:22:53.273Z,120.93
2022-10-09T05:25:20.321Z,120.30
2022-10-09T05:27:47.328Z,120.37
2022-10-09T05:30:14.756Z,119.30
2022-10-09T05:32:42.183Z,120.93
2022-10-09T05:35:09.720Z,120.43
2022-10-09T05:37:37.231Z,120.60
2022-10-09T05:40:05.099Z,121.17
2022-10-09T05:42:32.651Z,120.60
2022-10-09T05:44:59.615Z,120.00
2022-10-09T05:47:27.119Z,120.30
2022-10-09T05:49:54.621Z,120.20
2022-10-09T05:52:21.883Z,120.00
2022-10-09T05:54:50.264Z,121.07
2022-10-09T05:57:17.792Z,120.33
2022-10-09T05:59:45.243Z,120.47
2022-10-09T06:02:12.230Z,120.80
2022-10-09T06:04:39.754Z,120.50
2022-10-09T06:07:07.265Z,120.97
2022-10-09T06:09:34.840Z,120.00
2022-10-09T06:12:01.780Z,120.83
2022-10-09T06:14:29.208Z,120.80
2022-10-09T06:16:58.373Z,120.00
2022-10-09T06:19:25.856Z,119.47
2022-10-09T06:21:53.250Z,118.73
2022-10-09T06:24:28.794Z,120.03
2022-10-09T06:26:57.940Z,120.87
2022-10-09T06:29:26.770Z,120.67
2022-10-09T06:31:53.795Z,120.07
2022-10-09T06:34:21.307Z,120.30
2022-10-09T06:36:48.802Z,119.33
2022-10-09T06:39:17.283Z,120.60
2022-10-09T06:41:44.748Z,118.97
2022-10-09T06:44:24.784Z,119.80
2022-10-09T06:46:52.512Z,119.47
2022-10-09T06:49:19.884Z,119.37
2022-10-09T06:51:47.378Z,118.90
2022-10-09T06:54:17.164Z,119.80
2022-10-09T06:56:44.724Z,120.00
2022-10-09T06:59:12.423Z,120.40
2022-10-09T07:01:39.995Z,119.87
2022-10-09T07:04:14.512Z,120.10
2022-10-09T07:06:44.590Z,120.33
2022-10-09T07:09:14.326Z,120.60
2022-10-09T07:11:45.643Z,120.27
2022-10-09T07:14:15.678Z,120.63
2022-10-09T07:16:46.798Z,120.00
2022-10-09T07:19:17.508Z,120.37
2022-10-09T07:21:48.231Z,120.00
2022-10-09T07:24:17.461Z,120.27
2022-10-09T07:26:47.028Z,118.50
2022-10-09T07:29:16.439Z,120.07
2022-10-09T07:31:45.519Z,118.67
2022-10-09T07:34:13.190Z,119.33
2022-10-09T07:36:40.142Z,118.87
2022-10-09T07:39:07.549Z,119.13
2022-10-09T07:41:35.496Z,119.80
2022-10-09T07:44:03.037Z,119.80
2022-10-09T07:46:33.640Z,120.20
2022-10-09T07:49:02.905Z,119.57
2022-10-09T07:51:31.386Z,119.10
2022-10-09T07:54:00.149Z,119.27
2022-10-09T07:56:32.258Z,119.37
2022-10-09T07:59:12.093Z,119.87
2022-10-09T08:03:35.009Z,120.00
2022-10-09T08:06:02.790Z,119.90
2022-10-09T08:08:30.523Z,120.23
2022-10-09T08:10:58.059Z,119.70
2022-10-09T08:13:25.842Z,119.97
2022-10-09T08:15:53.315Z,120.77
2022-10-09T08:18:20.737Z,119.90
2022-10-09T08:21:00.907Z,120.00
2022-10-09T08:23:30.457Z,119.80
2022-10-09T08:25:58.867Z,120.27
2022-10-09T08:28:26.362Z,120.33
2022-10-09T08:30:53.980Z,120.87
2022-10-09T08:33:23.356Z,120.40
2022-10-09T08:35:51.256Z,119.80
2022-10-09T08:38:44.876Z,120.57
2022-10-09T08:41:19.319Z,120.23
2022-10-09T08:43:55.418Z,120.00
2022-10-09T08:46:29.617Z,119.13
2022-10-09T08:48:58.274Z,119.13
2022-10-09T08:51:33.286Z,119.37
2022-10-09T08:54:25.306Z,119.97
2022-10-09T08:56:54.102Z,119.80
2022-10-09T08:59:21.555Z,118.80
2022-10-09T09:02:44.063Z,119.40
2022-10-09T09:05:39.655Z,118.37
2022-10-09T09:08:45.703Z,118.27
2022-10-09T09:11:37.731Z,117.77
2022-10-09T09:14:23.059Z,117.50
2022-10-09T09:17:18.853Z,117.03
2022-10-09T09:20:08.054Z,115.40
2022-10-09T09:22:38.535Z,116.13
2022-10-09T09:25:24.587Z,116.20
2022-10-09T09:28:02.305Z,115.50
2022-10-09T09:30:37.921Z,115.67
2022-10-09T09:33:36.755Z,115.47
2022-10-09T09:36:22.702Z,115.50
2022-10-09T09:39:25.263Z,115.13
2022-10-09T09:41:40.459Z,115.60
2022-10-09T09:44:11.763Z,115.47
2022-10-09T09:46:40.391Z,116.60
2022-10-09T09:49:27.508Z,116.43
2022-10-09T09:51:58.559Z,116.50
2022-10-09T09:54:30.268Z,115.27
2022-10-09T09:57:12.979Z,115.60
2022-10-09T09:59:44.128Z,115.27
2022-10-09T10:02:19.284Z,115.37
2022-10-09T10:04:59.028Z,113.90
2022-10-09T10:07:33.092Z,113.40
2022-10-09T10:10:25.002Z,114.87
2022-10-09T10:12:56.417Z,116.00
2022-10-09T10:15:33.784Z,116.27
2022-10-09T10:18:05.500Z,114.77
2022-10-09T10:20:50.137Z,113.40
2022-10-09T10:23:56.132Z,114.57
2022-10-09T10:26:36.136Z,114.33
2022-10-09T10:29:18.154Z,112.00
2022-10-09T10:32:18.865Z,114.40
2022-10-09T10:34:58.235Z,113.13
2022-10-09T10:37:46.987Z,114.37
2022-10-09T10:40:24.546Z,114.50
2022-10-09T10:43:13.709Z,113.90
2022-10-09T10:45:44.030Z,114.77
2022-10-09T10:48:22.145Z,114.17
2022-10-09T10:51:33.341Z,113.90
2022-10-09T10:54:12.573Z,114.30
2022-10-09T10:57:26.453Z,113.30
2022-10-09T11:00:05.269Z,114.57
2022-10-09T11:03:15.711Z,114.57
2022-10-09T11:06:04.845Z,113.70
2022-10-09T11:08:56.594Z,114.30
2022-10-09T11:12:06.129Z,113.70
2022-10-09T11:14:41.743Z,114.90
2022-10-09T11:17:37.846Z,113.97
2022-10-09T11:20:31.013Z,115.40
2022-10-09T11:23:08.462Z,113.47
2022-10-09T11:25:51.702Z,114.43
2022-10-09T11:28:53.525Z,113.50
2022-10-09T11:31:38.112Z,113.40
2022-10-09T11:34:16.619Z,113.07
2022-10-09T11:36:45.400Z,113.07
2022-10-09T11:39:23.494Z,114.10
2022-10-09T11:41:53.818Z,114.27
2022-10-09T11:45:17.018Z,114.47
2022-10-09T11:48:02.239Z,114.17
2022-10-09T11:50:51.714Z,113.50
2022-10-09T11:53:24.899Z,114.47
2022-10-09T11:56:07.438Z,114.67
2022-10-09T11:58:35.261Z,114.07
2022-10-09T12:01:23.826Z,114.23
2022-10-09T12:04:07.498Z,113.30
2022-10-09T12:07:03.946Z,114.83
2022-10-09T12:09:40.443Z,114.47
2022-10-09T12:12:15.203Z,113.73
2022-10-09T12:14:46.693Z,113.27
2022-10-09T12:17:21.581Z,112.67
2022-10-09T12:20:00.865Z,112.20
2022-10-09T12:22:42.759Z,111.77
2022-10-09T12:25:26.995Z,113.90
2022-10-09T12:28:00.532Z,114.73
2022-10-09T12:30:45.042Z,114.47
2022-10-09T12:33:37.048Z,114.43
2022-10-09T12:36:21.843Z,113.07
2022-10-09T12:38:53.040Z,114.40
2022-10-09T12:41:29.979Z,115.90
2022-10-09T12:43:58.878Z,115.83
2022-10-09T12:46:39.431Z,114.70
2022-10-09T12:49:20.833Z,116.03
2022-10-09T12:51:58.547Z,116.27
2022-10-09T12:54:29.801Z,117.27
2022-10-09T12:56:59.821Z,117.47
2022-10-09T12:59:29.209Z,116.90
2022-10-09T13:02:00.438Z,116.67
2022-10-09T13:04:33.901Z,116.80
2022-10-09T13:07:09.080Z,116.73
2022-10-09T13:09:39.995Z,116.77
2022-10-09T13:12:30.605Z,116.87
2022-10-09T13:15:06.180Z,115.80
2022-10-09T13:17:37.575Z,117.17
2022-10-09T13:20:31.204Z,116.30
2022-10-09T13:23:03.959Z,117.07
2022-10-09T13:25:49.220Z,116.90
2022-10-09T13:28:20.428Z,116.93
2022-10-09T13:30:48.404Z,117.57
2022-10-09T13:33:17.253Z,117.87
2022-10-09T13:35:44.818Z,117.90
2022-10-09T13:38:17.832Z,118.40
2022-10-09T13:40:46.016Z,118.30
2022-10-09T13:43:28.070Z,118.40
2022-10-09T13:45:55.206Z,117.90
2022-10-09T13:48:23.077Z,118.17
2022-10-09T13:50:50.577Z,117.77
2022-10-09T13:53:18.403Z,117.87
2022-10-09T13:55:45.841Z,117.67
2022-10-09T13:58:13.217Z,117.60
2022-10-09T14:00:40.725Z,117.70
2022-10-09T14:03:07.700Z,118.20
2022-10-09T14:05:35.230Z,118.10
2022-10-09T14:08:02.717Z,118.70
2022-10-09T14:10:30.197Z,118.70
2022-10-09T14:12:58.637Z,118.20
2022-10-09T14:15:27.134Z,118.10
2022-10-09T14:17:55.610Z,117.97
2022-10-09T14:20:24.978Z,117.30
2022-10-09T14:22:55.325Z,117.30
2022-10-09T14:25:24.705Z,116.20
2022-10-09T14:27:53.130Z,117.50
2022-10-09T14:30:20.621Z,117.07
2022-10-09T14:32:49.745Z,116.97
2022-10-09T14:35:21.274Z,117.37
2022-10-09T14:37:49.201Z,116.87
2022-10-09T14:40:16.799Z,117.47
2022-10-09T14:42:44.221Z,118.37
2022-10-09T14:45:12.033Z,118.60
2022-10-09T14:47:39.545Z,118.60
2022-10-09T14:50:08.767Z,118.70
2022-10-09T14:52:36.286Z,119.27
2022-10-09T14:55:03.781Z,119.50
2022-10-09T14:57:35.167Z,119.20
2022-10-09T15:00:05.127Z,119.53
2022-10-09T15:02:35.713Z,119.53
2022-10-09T15:05:04.099Z,119.53
2022-10-09T15:07:33.526Z,119.17
2022-10-09T15:10:01.041Z,118.97
2022-10-09T15:12:28.438Z,119.03
2022-10-09T15:14:57.049Z,119.80
2022-10-09T15:17:24.530Z,119.70
2022-10-09T15:19:54.836Z,119.90
2022-10-09T15:22:22.414Z,119.87
2022-10-09T15:24:49.983Z,120.60
2022-10-09T15:27:18.375Z,120.60
2022-10-09T15:29:45.979Z,120.30
2022-10-09T15:32:14.537Z,120.17
2022-10-09T15:34:41.951Z,120.40
2022-10-09T15:37:10.507Z,120.87
2022-10-09T15:39:38.223Z,120.40
2022-10-09T15:42:05.911Z,120.93
2022-10-09T15:44:32.843Z,121.00
2022-10-09T15:47:00.335Z,120.57
2022-10-09T15:49:27.295Z,121.07
2022-10-09T15:51:54.291Z,120.50
2022-10-09T15:54:21.940Z,120.70
2022-10-09T15:56:49.535Z,120.27
2022-10-09T15:59:18.043Z,121.40
2022-10-09T16:01:45.574Z,121.03
2022-10-09T16:04:13.816Z,121.13
2022-10-09T16:06:41.255Z,121.20
2022-10-09T16:09:08.949Z,120.90
2022-10-09T16:11:36.467Z,121.43
2022-10-09T16:14:04.493Z,120.77
2022-10-09T16:16:31.476Z,120.97
2022-10-09T16:19:00.640Z,120.90
2022-10-09T16:21:29.296Z,121.20
2022-10-09T16:23:59.563Z,121.43
2022-10-09T16:26:29.798Z,121.37
2022-10-09T16:28:59.424Z,121.97
2022-10-09T16:31:36.225Z,121.07
2022-10-09T16:34:06.288Z,121.90
2022-10-09T16:36:35.872Z,121.37
2022-10-09T16:39:03.546Z,122.03
2022-10-09T16:41:32.044Z,122.13
2022-10-09T16:44:05.638Z,122.20
2022-10-09T16:49:04.249Z,122.37
2022-10-09T16:51:36.547Z,121.73
2022-10-09T16:54:06.761Z,122.30
2022-10-09T16:56:37.796Z,121.70
2022-10-09T16:59:10.969Z,122.17
2022-10-09T17:01:43.395Z,122.23
2022-10-09T17:04:12.732Z,121.70
2022-10-09T17:06:43.782Z,120.80
2022-10-09T17:09:14.183Z,121.27
2022-10-09T17:11:42.811Z,120.87
2022-10-09T17:14:14.765Z,121.60
2022-10-09T17:16:43.408Z,120.13
2022-10-09T17:19:11.417Z,121.23
2022-10-09T17:21:38.951Z,121.20
2022-10-09T17:24:07.609Z,120.53
2022-10-09T17:26:35.580Z,120.70
2022-10-09T17:29:03.505Z,120.90
2022-10-09T17:31:31.601Z,121.37
2022-10-09T17:34:02.914Z,120.47
2022-10-09T17:36:34.781Z,120.80
2022-10-09T17:39:03.838Z,121.10
2022-10-09T17:41:31.778Z,121.20
2022-10-09T17:43:59.962Z,121.60
2022-10-09T17:46:29.054Z,121.17
2022-10-09T17:48:58.449Z,121.87
2022-10-09T17:51:34.193Z,121.33
2022-10-09T17:54:12.129Z,120.90
2022-10-09T17:56:41.357Z,121.63
2022-10-09T17:59:09.146Z,121.13
2022-10-09T18:01:39.101Z,121.07
2022-10-09T18:04:07.989Z,121.47
2022-10-09T18:06:35.835Z,121.67
2022-10-09T18:09:04.210Z,121.00
2022-10-09T18:11:33.060Z,120.70
2022-10-09T18:14:00.930Z,121.13
2022-10-09T18:16:36.302Z,121.20
2022-10-09T18:19:15.046Z,121.07
2022-10-09T18:21:47.271Z,121.30
2022-10-09T18:24:15.466Z,121.47
2022-10-09T18:26:44.327Z,121.30
2022-10-09T18:29:12.071Z,120.20
2022-10-09T18:31:39.492Z,120.70
2022-10-09T18:34:06.959Z,121.10
2022-10-09T18:36:34.840Z,120.40
2022-10-09T18:39:13.998Z,120.73
2022-10-09T18:41:42.007Z,121.67
2022-10-09T18:44:17.201Z,121.10
2022-10-09T18:46:57.356Z,121.33
2022-10-09T18:49:31.470Z,120.90
2022-10-09T18:52:02.523Z,121.77
2022-10-09T18:54:30.946Z,121.23
2022-10-09T18:56:58.599Z,120.77
2022-10-09T18:59:27.168Z,120.67
2022-10-09T19:01:54.552Z,120.90
2022-10-09T19:04:21.928Z,120.97
2022-10-09T19:06:53.604Z,120.57
2022-10-09T19:09:21.578Z,121.50
2022-10-09T19:11:49.397Z,120.93
2022-10-09T19:14:16.884Z,120.57
2022-10-09T19:16:44.331Z,120.80
2022-10-09T19:19:13.065Z,121.27
2022-10-09T19:21:44.103Z,121.00
2022-10-09T19:24:13.240Z,121.50
2022-10-09T19:26:41.159Z,121.77
2022-10-09T19:29:09.200Z,120.70
2022-10-09T19:31:36.865Z,121.20
2022-10-09T19:34:05.919Z,120.83
2022-10-09T19:36:34.876Z,121.77
2022-10-09T19:39:04.150Z,120.80
2022-10-09T19:41:31.549Z,119.97
2022-10-09T19:44:00.501Z,121.37
2022-10-09T19:46:28.193Z,120.70
2022-10-09T19:48:57.176Z,120.27
2022-10-09T19:51:26.624Z,120.83
2022-10-09T19:53:54.753Z,119.87
2022-10-09T19:56:26.725Z,121.13
2022-10-09T19:58:55.548Z,120.50
2022-10-09T20:01:26.056Z,120.57
2022-10-09T20:04:04.753Z,119.87
2022-10-09T20:06:32.472Z,121.27
2022-10-09T20:08:59.961Z,121.03
2022-10-09T20:11:27.413Z,120.27
2022-10-09T20:13:56.606Z,120.77
2022-10-09T20:16:25.367Z,120.40
2022-10-09T20:18:54.553Z,121.40
2022-10-09T20:21:22.305Z,120.60
2022-10-09T20:23:50.050Z,121.00
2022-10-09T20:26:21.261Z,120.47
2022-10-09T20:28:49.838Z,120.23
2022-10-09T20:31:22.173Z,120.80
2022-10-09T20:33:50.814Z,120.90
2022-10-09T20:36:35.332Z,121.13
2022-10-09T20:39:08.145Z,119.87
2022-10-09T20:41:36.641Z,120.60
2022-10-09T20:44:04.782Z,121.20
2022-10-09T20:46:34.714Z,121.10
2022-10-09T20:49:05.321Z,120.10
2022-10-09T20:51:36.150Z,120.73
2022-10-09T20:54:04.927Z,121.10
2022-10-09T20:56:34.081Z,121.03
2022-10-09T20:59:03.202Z,120.80
2022-10-09T21:01:30.802Z,120.70
2022-10-09T21:03:59.174Z,120.97
2022-10-09T21:06:27.180Z,120.30
2022-10-09T21:08:55.401Z,120.60
2022-10-09T21:11:23.870Z,120.90
2022-10-09T21:13:51.513Z,119.97
2022-10-09T21:16:22.973Z,121.23
2022-10-09T21:19:02.838Z,120.60
2022-10-09T21:21:31.078Z,120.63
2022-10-09T21:24:00.333Z,120.40
2022-10-09T21:26:29.166Z,120.50
2022-10-09T21:28:59.702Z,120.57
2022-10-09T21:31:30.019Z,119.67
2022-10-09T21:33:59.286Z,120.87
2022-10-09T21:37:16.017Z,120.37
2022-10-09T21:39:33.919Z,120.57
2022-10-09T21:42:01.383Z,120.60
2022-10-09T21:44:29.958Z,120.47
2022-10-09T21:46:57.519Z,121.00
2022-10-09T21:49:27.399Z,120.67
2022-10-09T21:51:55.074Z,120.90
2022-10-09T21:54:22.678Z,121.27
2022-10-09T21:56:50.218Z,120.80
2022-10-09T21:59:17.671Z,120.50
2022-10-09T22:01:45.101Z,120.17
2022-10-09T22:04:12.691Z,121.17
2022-10-09T22:06:41.003Z,120.93
2022-10-09T22:09:09.064Z,120.97
2022-10-09T22:11:36.508Z,121.00
2022-10-09T22:14:05.447Z,120.93
2022-10-09T22:16:32.942Z,120.83
2022-10-09T22:19:01.347Z,120.50
2022-10-09T22:21:28.919Z,120.90
2022-10-09T22:23:56.355Z,120.97
2022-10-09T22:26:23.899Z,120.63
2022-10-09T22:28:51.312Z,120.73
2022-10-09T22:31:24.943Z,119.90
2022-10-09T22:33:58.832Z,120.40
2022-10-09T22:36:30.752Z,120.70
2022-10-09T22:39:01.764Z,120.73
2022-10-09T22:41:30.441Z,121.27
2022-10-09T22:44:00.118Z,120.70
2022-10-09T22:46:37.923Z,120.70
2022-10-09T22:49:07.675Z,120.90
2022-10-09T22:51:35.457Z,120.17
2022-10-09T22:54:03.284Z,120.80
2022-10-09T22:56:37.852Z,120.97
2022-10-09T22:59:07.029Z,120.87
2022-10-09T23:01:37.605Z,120.70
2022-10-09T23:04:09.368Z,120.70
2022-10-09T23:06:36.981Z,120.07
2022-10-09T23:09:08.091Z,120.67
2022-10-09T23:11:35.833Z,120.50
2022-10-09T23:14:03.598Z,120.13
2022-10-09T23:16:31.939Z,120.97
2022-10-09T23:19:06.189Z,118.97
2022-10-09T23:21:36.350Z,120.60
2022-10-09T23:24:04.539Z,120.40
2022-10-09T23:26:33.533Z,120.90
2022-10-09T23:29:07.564Z,120.30
2022-10-09T23:31:36.300Z,120.80
2022-10-09T23:34:05.010Z,119.47
2022-10-09T23:36:32.544Z,120.67
2022-10-09T23:39:04.137Z,120.40
2022-10-09T23:41:31.969Z,120.10
2022-10-09T23:43:59.442Z,120.10
2022-10-09T23:46:30.223Z,120.80
2022-10-09T23:48:57.347Z,120.10
2022-10-09T23:51:26.437Z,120.07
2022-10-09T23:53:54.157Z,120.20
2022-10-09T23:56:31.489Z,120.80
2022-10-09T23:59:00.823Z,120.60
